createdAt,value
2022-09-04T00:00:11.182Z,1.60
2022-09-04T00:03:18.678Z,1.25
2022-09-04T00:05:57.267Z,1.10
2022-09-04T00:08:49.086Z,1.23
2022-09-04T00:11:41.949Z,0.95
2022-09-04T00:14:33.893Z,1.15
2022-09-04T00:17:06.520Z,1.10
2022-09-04T00:19:56.337Z,1.10
2022-09-04T00:23:00.417Z,1.33
2022-09-04T00:25:39.226Z,1.00
2022-09-04T00:28:41.693Z,0.90
2022-09-04T00:31:29.041Z,1.20
2022-09-04T00:34:46.219Z,1.05
2022-09-04T00:37:21.356Z,1.02
2022-09-04T00:40:31.454Z,0.90
2022-09-04T00:43:19.024Z,1.00
2022-09-04T00:46:25.179Z,1.10
2022-09-04T00:49:08.199Z,0.82
2022-09-04T00:52:02.650Z,0.95
2022-09-04T00:54:47.763Z,0.85
2022-09-04T00:58:00.778Z,0.88
2022-09-04T01:00:29.173Z,1.00
2022-09-04T01:03:08.095Z,0.80
2022-09-04T01:06:02.803Z,1.08
2022-09-04T01:09:16.144Z,1.15
2022-09-04T01:12:25.963Z,1.00
2022-09-04T01:15:15.461Z,1.10
2022-09-04T01:18:04.529Z,0.88
2022-09-04T01:20:53.938Z,0.90
2022-09-04T01:24:16.841Z,1.05
2022-09-04T01:27:10.121Z,0.70
2022-09-04T01:30:12.361Z,1.13
2022-09-04T01:32:57.274Z,0.70
2022-09-04T01:35:50.793Z,0.90
2022-09-04T01:38:54.303Z,1.02
2022-09-04T01:41:44.261Z,0.90
2022-09-04T01:44:13.308Z,1.08
2022-09-04T01:46:50.045Z,0.68
2022-09-04T01:49:44.456Z,0.80
2022-09-04T01:52:48.155Z,1.05
2022-09-04T01:55:44.931Z,0.88
2022-09-04T01:58:22.876Z,0.90
2022-09-04T02:01:25.324Z,0.98
2022-09-04T02:04:43.543Z,0.80
2022-09-04T02:07:32.401Z,0.95
2022-09-04T02:10:39.089Z,0.98
2022-09-04T02:13:40.358Z,0.85
2022-09-04T02:16:15.054Z,1.00
2022-09-04T02:19:23.769Z,0.75
2022-09-04T02:22:44.563Z,0.80
2022-09-04T02:25:28.355Z,0.93
2022-09-04T02:28:19.680Z,0.80
2022-09-04T02:30:59.927Z,1.00
2022-09-04T02:33:59.297Z,0.90
2022-09-04T02:36:50.367Z,1.10
2022-09-04T02:39:31.086Z,0.93
2022-09-04T02:42:12.666Z,0.95
2022-09-04T02:45:19.874Z,0.70
2022-09-04T02:48:23.823Z,0.80
2022-09-04T02:51:14.051Z,0.80
2022-09-04T02:54:00.386Z,0.90
2022-09-04T02:56:53.350Z,0.87
2022-09-04T02:59:53.987Z,0.82
2022-09-04T03:02:39.453Z,0.93
2022-09-04T03:05:19.352Z,1.05
2022-09-04T03:08:00.480Z,0.88
2022-09-04T03:10:56.285Z,1.00
2022-09-04T03:13:40.127Z,0.90
2022-09-04T03:16:24.340Z,1.00
2022-09-04T03:19:32.396Z,1.17
2022-09-04T03:22:52.213Z,0.80
2022-09-04T03:25:59.713Z,0.70
2022-09-04T03:28:52.713Z,0.60
2022-09-04T03:31:55.326Z,0.90
2022-09-04T03:35:09.559Z,0.90
2022-09-04T03:37:59.317Z,0.95
2022-09-04T03:40:43.229Z,0.90
2022-09-04T03:43:40.539Z,1.00
2022-09-04T03:46:57.011Z,0.93
2022-09-04T03:49:50.265Z,0.90
2022-09-04T03:52:59.452Z,0.68
2022-09-04T03:55:57.460Z,0.75
2022-09-04T03:59:08.164Z,0.75
2022-09-04T04:02:42.383Z,0.80
2022-09-04T04:05:26.031Z,0.73
2022-09-04T04:08:04.841Z,0.60
2022-09-04T04:11:24.562Z,0.70
2022-09-04T04:14:39.094Z,1.02
2022-09-04T04:17:50.624Z,0.82
2022-09-04T04:21:05.142Z,0.80
2022-09-04T04:24:14.792Z,0.73
2022-09-04T04:26:54.114Z,0.85
2022-09-04T04:29:55.255Z,0.80
2022-09-04T04:32:55.631Z,0.70
2022-09-04T04:35:36.784Z,0.80
2022-09-04T04:38:20.651Z,1.00
2022-09-04T04:41:22.296Z,0.90
2022-09-04T04:44:07.940Z,1.00
2022-09-04T04:47:27.641Z,0.80
2022-09-04T04:50:08.474Z,1.33
2022-09-04T04:52:49.786Z,0.80
2022-09-04T04:55:31.328Z,0.93
2022-09-04T04:58:14.844Z,0.70
2022-09-04T05:00:58.500Z,0.90
2022-09-04T05:03:53.965Z,1.10
2022-09-04T05:06:35.956Z,0.82
2022-09-04T05:09:25.970Z,0.80
2022-09-04T05:12:04.479Z,1.02
2022-09-04T05:14:58.535Z,0.80
2022-09-04T05:17:34.581Z,0.85
2022-09-04T05:20:27.442Z,1.08
2022-09-04T05:23:22.079Z,1.20
2022-09-04T05:26:23.712Z,0.98
2022-09-04T05:29:17.092Z,0.90
2022-09-04T05:31:55.939Z,1.00
2022-09-04T05:34:57.365Z,0.90
2022-09-04T05:37:56.026Z,0.90
2022-09-04T05:41:06.395Z,0.80
2022-09-04T05:44:26.996Z,0.80
2022-09-04T05:47:37.798Z,1.10
2022-09-04T05:50:40.963Z,0.93
2022-09-04T05:53:23.486Z,0.88
2022-09-04T05:56:05.537Z,1.00
2022-09-04T05:59:07.564Z,0.85
2022-09-04T06:02:22.082Z,0.80
2022-09-04T06:05:32.164Z,0.80
2022-09-04T06:08:28.496Z,1.02
2022-09-04T06:11:23.611Z,0.80
2022-09-04T06:14:34.658Z,1.13
2022-09-04T06:18:02.371Z,1.10
2022-09-04T06:20:47.910Z,1.17
2022-09-04T06:23:32.260Z,1.05
2022-09-04T06:26:33.022Z,1.00
2022-09-04T06:29:18.615Z,1.52
2022-09-04T06:32:28.424Z,1.52
2022-09-04T06:35:24.802Z,1.10
2022-09-04T06:38:16.858Z,1.00
2022-09-04T06:40:56.154Z,0.90
2022-09-04T06:43:48.816Z,1.10
2022-09-04T06:46:31.164Z,1.33
2022-09-04T06:49:48.621Z,1.02
2022-09-04T06:53:03.976Z,1.15
2022-09-04T06:56:07.978Z,0.98
2022-09-04T06:59:01.389Z,1.17
2022-09-04T07:01:47.776Z,1.30
2022-09-04T07:04:45.890Z,1.10
2022-09-04T07:08:00.263Z,1.02
2022-09-04T07:10:38.569Z,1.58
2022-09-04T07:13:35.706Z,1.27
2022-09-04T07:16:38.853Z,1.30
2022-09-04T07:19:43.120Z,1.75
2022-09-04T07:22:47.003Z,1.90
2022-09-04T07:26:00.625Z,1.33
2022-09-04T07:29:07.136Z,1.73
2022-09-04T07:32:08.382Z,1.42
2022-09-04T07:34:51.379Z,1.48
2022-09-04T07:37:25.222Z,1.45
2022-09-04T07:40:17.242Z,1.70
2022-09-04T07:43:10.073Z,1.45
2022-09-04T07:45:47.304Z,2.38
2022-09-04T07:48:50.458Z,1.85
2022-09-04T07:51:23.727Z,1.60
2022-09-04T07:54:22.559Z,2.10
2022-09-04T07:57:23.333Z,1.52
2022-09-04T08:00:15.540Z,1.58
2022-09-04T08:03:13.735Z,1.60
2022-09-04T08:06:14.766Z,1.55
2022-09-04T08:09:37.296Z,2.03
2022-09-04T08:12:42.649Z,1.90
2022-09-04T08:15:42.732Z,2.40
2022-09-04T08:18:30.643Z,2.10
2022-09-04T08:21:19.379Z,2.75
2022-09-04T08:24:02.043Z,2.03
2022-09-04T08:27:24.778Z,1.42
2022-09-04T08:30:08.132Z,2.10
2022-09-04T08:33:01.447Z,1.95
2022-09-04T08:35:53.686Z,1.30
2022-09-04T08:38:58.034Z,1.90
2022-09-04T08:42:05.844Z,2.28
2022-09-04T08:45:28.739Z,2.13
2022-09-04T08:48:30.749Z,1.70
2022-09-04T08:51:22.404Z,2.22
2022-09-04T08:54:26.341Z,1.83
2022-09-04T08:57:05.113Z,1.85
2022-09-04T09:00:22.081Z,1.60
2022-09-04T09:03:14.225Z,2.00
2022-09-04T09:06:06.650Z,2.03
2022-09-04T09:09:05.950Z,1.50
2022-09-04T09:12:17.051Z,2.30
2022-09-04T09:15:31.377Z,1.67
2022-09-04T09:18:35.934Z,1.50
2022-09-04T09:21:49.181Z,1.55
2022-09-04T09:25:23.886Z,1.70
2022-09-04T09:28:28.005Z,1.40
2022-09-04T09:31:51.302Z,1.65
2022-09-04T09:34:58.155Z,1.70
2022-09-04T09:38:00.026Z,1.50
2022-09-04T09:41:00.634Z,1.60
2022-09-04T09:43:46.542Z,1.38
2022-09-04T09:46:55.132Z,1.52
2022-09-04T09:49:51.504Z,1.90
2022-09-04T09:52:57.876Z,2.15
2022-09-04T09:56:01.331Z,1.40
2022-09-04T09:59:21.662Z,1.30
2022-09-04T10:02:43.065Z,1.38
2022-09-04T10:05:54.675Z,1.40
2022-09-04T10:09:04.966Z,1.55
2022-09-04T10:11:57.274Z,1.55
2022-09-04T10:15:08.114Z,1.70
2022-09-04T10:18:35.936Z,1.30
2022-09-04T10:24:50.272Z,1.38
2022-09-04T10:27:50.523Z,1.50
2022-09-04T10:30:23.854Z,1.77
2022-09-04T10:33:22.427Z,1.70
2022-09-04T10:36:25.800Z,1.23
2022-09-04T10:39:29.344Z,1.58
2022-09-04T10:42:04.436Z,1.30
2022-09-04T10:44:55.631Z,1.90
2022-09-04T10:48:17.924Z,1.63
2022-09-04T10:51:08.314Z,1.75
2022-09-04T10:54:14.374Z,1.67
2022-09-04T10:57:09.322Z,1.73
2022-09-04T11:00:11.427Z,1.87
2022-09-04T11:03:07.546Z,1.80
2022-09-04T11:06:16.482Z,1.45
2022-09-04T11:09:06.793Z,1.70
2022-09-04T11:11:52.810Z,1.50
2022-09-04T11:14:54.357Z,1.63
2022-09-04T11:17:56.280Z,1.65
2022-09-04T11:20:53.133Z,1.70
2022-09-04T11:24:03.754Z,1.85
2022-09-04T11:27:08.360Z,2.25
2022-09-04T11:30:13.321Z,1.90
2022-09-04T11:33:07.113Z,1.60
2022-09-04T11:36:24.908Z,1.77
2022-09-04T11:39:14.947Z,1.48
2022-09-04T11:42:08.471Z,1.80
2022-09-04T11:45:03.937Z,1.63
2022-09-04T11:48:05.739Z,1.58
2022-09-04T11:51:04.324Z,1.55
2022-09-04T11:54:15.276Z,1.80
2022-09-04T11:57:02.754Z,1.50
2022-09-04T11:59:50.055Z,1.60
2022-09-04T12:02:45.424Z,1.70
2022-09-04T12:05:54.261Z,1.60
2022-09-04T12:08:52.714Z,2.03
2022-09-04T12:11:37.753Z,2.65
2022-09-04T12:14:15.360Z,1.77
2022-09-04T12:17:23.636Z,1.75
2022-09-04T12:20:24.015Z,2.10
2022-09-04T12:23:48.591Z,1.70
2022-09-04T12:26:27.756Z,1.90
2022-09-04T12:29:26.945Z,2.22
2022-09-04T12:32:07.407Z,2.50
2022-09-04T12:34:54.433Z,1.80
2022-09-04T12:37:36.433Z,1.58
2022-09-04T12:40:34.524Z,1.67
2022-09-04T12:43:24.298Z,1.50
2022-09-04T12:46:28.281Z,1.50
2022-09-04T12:49:28.737Z,1.63
2022-09-04T12:52:08.070Z,1.45
2022-09-04T12:54:55.273Z,1.50
2022-09-04T12:57:47.669Z,1.70
2022-09-04T13:00:19.370Z,1.70
2022-09-04T13:03:01.592Z,1.50
2022-09-04T13:06:04.362Z,1.50
2022-09-04T13:08:47.079Z,1.48
2022-09-04T13:12:11.073Z,1.33
2022-09-04T13:15:19.274Z,1.40
2022-09-04T13:18:16.882Z,1.70
2022-09-04T13:21:10.522Z,1.60
2022-09-04T13:23:57.163Z,1.55
2022-09-04T13:27:02.778Z,1.70
2022-09-04T13:30:05.583Z,1.50
2022-09-04T13:32:35.581Z,1.83
2022-09-04T13:35:19.530Z,1.55
2022-09-04T13:38:27.049Z,1.60
2022-09-04T13:41:22.418Z,1.50
2022-09-04T13:44:12.739Z,1.48
2022-09-04T13:47:08.917Z,1.45
2022-09-04T13:49:44.498Z,1.80
2022-09-04T13:52:30.192Z,1.90
2022-09-04T13:55:09.828Z,1.42
2022-09-04T13:57:53.186Z,1.67
2022-09-04T14:00:21.574Z,1.67
2022-09-04T14:02:56.534Z,1.60
2022-09-04T14:05:26.190Z,1.90
2022-09-04T14:08:05.299Z,1.52
2022-09-04T14:11:05.081Z,1.98
2022-09-04T14:13:53.883Z,1.60
2022-09-04T14:16:23.732Z,1.65
2022-09-04T14:19:15.674Z,1.55
2022-09-04T14:22:33.571Z,1.40
2022-09-04T14:25:40.856Z,1.33
2022-09-04T14:28:34.693Z,1.60
2022-09-04T14:31:14.341Z,1.50
2022-09-04T14:33:56.988Z,1.70
2022-09-04T14:36:56.290Z,1.73
2022-09-04T14:39:36.393Z,1.38
2022-09-04T14:42:18.304Z,1.70
2022-09-04T14:45:48.337Z,1.55
2022-09-04T14:48:17.732Z,1.70
2022-09-04T14:50:55.673Z,2.25
2022-09-04T14:53:35.487Z,1.60
2022-09-04T14:56:16.574Z,1.40
2022-09-04T14:59:25.521Z,1.50
2022-09-04T15:02:29.434Z,1.88
2022-09-04T15:05:17.342Z,1.65
2022-09-04T15:07:44.166Z,1.50
2022-09-04T15:10:37.634Z,1.20
2022-09-04T15:13:29.176Z,1.45
2022-09-04T15:16:29.493Z,1.45
2022-09-04T15:19:08.850Z,2.83
2022-09-04T15:22:06.709Z,1.63
2022-09-04T15:24:49.005Z,1.70
2022-09-04T15:27:31.050Z,1.60
2022-09-04T15:30:16.307Z,1.65
2022-09-04T15:32:44.933Z,2.00
2022-09-04T15:35:23.678Z,1.50
2022-09-04T15:38:05.041Z,1.90
2022-09-04T15:40:59.631Z,1.77
2022-09-04T15:43:31.551Z,1.40
2022-09-04T15:46:26.712Z,2.00
2022-09-04T15:49:18.785Z,1.40
2022-09-04T15:52:24.130Z,1.70
2022-09-04T15:55:27.959Z,1.55
2022-09-04T15:58:24.242Z,1.35
2022-09-04T16:01:06.669Z,1.70
2022-09-04T16:03:54.956Z,1.70
2022-09-04T16:06:37.172Z,2.75
2022-09-04T16:09:34.178Z,1.60
2022-09-04T16:12:17.399Z,1.48
2022-09-04T16:14:54.285Z,1.80
2022-09-04T16:17:27.270Z,1.13
2022-09-04T16:20:26.240Z,1.27
2022-09-04T16:22:58.328Z,1.60
2022-09-04T16:25:31.069Z,1.38
2022-09-04T16:28:23.311Z,1.65
2022-09-04T16:31:03.202Z,1.40
2022-09-04T16:33:45.783Z,1.55
2022-09-04T16:36:40.299Z,2.13
2022-09-04T16:39:47.202Z,7.45
2022-09-04T16:42:29.157Z,3.25
2022-09-04T16:45:17.257Z,2.08
2022-09-04T16:48:33.386Z,2.80
2022-09-04T16:54:29.149Z,1.65
2022-09-04T16:57:30.022Z,1.80
2022-09-04T17:00:09.545Z,1.80
2022-09-04T17:02:53.662Z,1.98
2022-09-04T17:05:49.815Z,1.80
2022-09-04T17:08:33.787Z,2.35
2022-09-04T17:11:41.712Z,1.85
2022-09-04T17:14:31.129Z,2.10
2022-09-04T17:17:30.550Z,2.60
2022-09-04T17:20:03.522Z,2.42
2022-09-04T17:28:41.583Z,2.03
2022-09-04T17:29:00.734Z,2.22
2022-09-04T17:29:14.605Z,2.35
2022-09-04T17:31:52.991Z,2.53
2022-09-04T17:40:36.758Z,2.15
2022-09-04T17:40:37.044Z,2.35
2022-09-04T17:41:36.214Z,2.17
2022-09-04T17:44:40.461Z,1.83
2022-09-04T17:47:32.613Z,2.40
2022-09-04T17:50:01.779Z,2.13
2022-09-04T17:52:34.083Z,2.47
2022-09-04T17:55:11.522Z,2.63
2022-09-04T17:57:59.551Z,2.20
2022-09-04T18:01:14.159Z,2.65
2022-09-04T18:04:20.922Z,4.90
2022-09-04T18:08:07.648Z,2.90
2022-09-04T18:10:57.940Z,2.92
2022-09-04T18:13:41.539Z,2.88
2022-09-04T18:17:11.134Z,3.05
2022-09-04T18:19:52.149Z,2.45
2022-09-04T18:23:01.769Z,2.25
2022-09-04T18:25:42.952Z,2.15
2022-09-04T18:28:28.513Z,2.28
2022-09-04T18:37:10.101Z,2.63
2022-09-04T18:37:26.902Z,2.25
2022-09-04T18:38:10.619Z,3.30
2022-09-04T18:44:30.591Z,2.70
2022-09-04T18:50:29.799Z,2.33
2022-09-04T18:50:33.996Z,2.30
2022-09-04T18:50:47.145Z,2.70
2022-09-04T18:52:43.577Z,2.78
2022-09-04T18:55:29.075Z,3.25
2022-09-04T18:58:23.813Z,2.45
2022-09-04T19:01:00.961Z,2.50
2022-09-04T19:03:46.900Z,2.60
2022-09-04T19:06:46.445Z,2.85
2022-09-04T19:09:23.475Z,2.70
2022-09-04T19:11:57.016Z,2.85
2022-09-04T19:14:33.182Z,2.50
2022-09-04T19:17:20.380Z,2.38
2022-09-04T19:20:44.974Z,2.63
2022-09-04T19:23:24.730Z,2.53
2022-09-04T19:25:55.206Z,3.45
2022-09-04T19:28:52.989Z,2.65
2022-09-04T19:31:37.593Z,3.08
2022-09-04T19:34:28.694Z,3.08
2022-09-04T19:38:55.829Z,2.97
2022-09-04T19:45:54.169Z,2.70
2022-09-04T19:46:19.141Z,3.03
2022-09-04T19:46:28.242Z,2.70
2022-09-04T19:50:48.874Z,3.10
2022-09-04T19:53:30.534Z,2.72
2022-09-04T19:55:49.898Z,2.83
2022-09-04T19:58:45.622Z,2.75
2022-09-04T20:01:20.702Z,3.85
2022-09-04T20:03:58.929Z,3.55
2022-09-04T20:06:34.815Z,3.38
2022-09-04T20:09:18.174Z,3.25
2022-09-04T20:12:15.818Z,3.28
2022-09-04T20:14:55.041Z,3.03
2022-09-04T20:17:51.748Z,2.75
2022-09-04T20:20:24.878Z,3.30
2022-09-04T20:23:01.656Z,3.15
2022-09-04T20:25:58.557Z,3.28
2022-09-04T20:28:48.688Z,3.00
2022-09-04T20:31:28.503Z,2.72
2022-09-04T20:34:38.794Z,2.70
2022-09-04T20:37:43.679Z,3.05
2022-09-04T20:40:30.126Z,3.05
2022-09-04T20:43:02.979Z,3.10
2022-09-04T20:47:59.645Z,3.45
2022-09-04T20:52:51.810Z,2.72
2022-09-04T20:52:57.619Z,2.72
2022-09-04T20:55:18.786Z,3.20
2022-09-04T21:03:09.327Z,2.83
2022-09-04T21:03:21.498Z,3.10
2022-09-04T21:04:45.999Z,2.95
2022-09-04T21:07:42.487Z,2.28
2022-09-04T21:10:29.578Z,2.63
2022-09-04T21:13:21.800Z,3.05
2022-09-04T21:16:33.440Z,2.80
2022-09-04T21:19:34.543Z,2.45
2022-09-04T21:22:43.133Z,6.35
2022-09-04T21:25:35.776Z,8.05
2022-09-04T21:29:10.695Z,5.68
2022-09-04T21:32:05.991Z,3.50
2022-09-04T21:34:46.076Z,3.47
2022-09-04T21:38:33.176Z,3.22
2022-09-04T21:41:19.102Z,3.20
2022-09-04T21:44:37.369Z,3.47
2022-09-04T21:47:31.828Z,2.92
2022-09-04T21:50:30.414Z,2.80
2022-09-04T21:53:35.994Z,3.03
2022-09-04T22:00:22.699Z,3.00
2022-09-04T22:02:35.464Z,3.05
2022-09-04T22:03:31.667Z,2.70
2022-09-04T22:08:54.715Z,2.80
2022-09-04T22:13:34.659Z,2.55
2022-09-04T22:13:43.094Z,2.50
2022-09-04T22:16:03.204Z,3.08
2022-09-04T22:18:53.418Z,3.17
2022-09-04T22:21:42.494Z,2.90
2022-09-04T22:24:25.331Z,2.95
2022-09-04T22:28:08.773Z,2.72
2022-09-04T22:31:22.551Z,2.83
2022-09-04T22:34:16.698Z,2.85
2022-09-04T22:37:03.503Z,3.00
2022-09-04T22:39:42.440Z,2.88
2022-09-04T22:42:41.445Z,2.85
2022-09-04T22:45:39.038Z,3.15
2022-09-04T22:48:41.115Z,3.08
2022-09-04T22:51:27.351Z,3.47
2022-09-04T22:54:35.556Z,3.03
2022-09-04T22:57:10.243Z,2.90
2022-09-04T22:59:49.287Z,2.72
2022-09-04T23:03:07.198Z,2.80
2022-09-04T23:06:22.199Z,2.97
2022-09-04T23:13:49.424Z,2.50
2022-09-04T23:13:51.045Z,3.08
2022-09-04T23:15:53.329Z,2.78
2022-09-04T23:24:56.536Z,2.83
2022-09-04T23:26:45.165Z,2.83
2022-09-04T23:26:50.180Z,2.33
2022-09-04T23:28:52.394Z,3.45
2022-09-04T23:32:07.326Z,2.80
2022-09-04T23:35:14.829Z,2.85
2022-09-04T23:38:06.768Z,2.47
2022-09-04T23:40:47.565Z,2.90
2022-09-04T23:44:11.305Z,3.50
2022-09-04T23:46:47.223Z,3.05
2022-09-04T23:49:46.596Z,3.20
2022-09-04T23:52:49.655Z,3.03
2022-09-04T23:55:28.384Z,3.60
2022-09-04T23:59:11.396Z,2.95
